Time;durP1;ratioP1;P1;durP2;ratioP2;P2;SDS_P1;SDS_P2;PMS_P1;PMS_P2;Temp;Humidity;BMP_temperature;BMP_pressure;BME280_temperature;BME280_humidity;BME280_pressure;Samples;Min_cycle;Max_cycle;Signal;HPM_P1;HPM_P2
2021/08/22 00:01:25;;;;;;;22.98;19.10;;;25.30;99.90;;;;;;4883315;29;20040;-88
2021/08/22 00:03:51;;;;;;;21.75;19.35;;;25.30;99.90;;;;;;4884362;29;20057;-88
2021/08/22 00:06:16;;;;;;;23.55;19.40;;;25.30;99.90;;;;;;4883244;29;20036;-88
2021/08/22 00:08:43;;;;;;;21.70;18.67;;;25.30;99.90;;;;;;4867501;29;20096;-88
2021/08/22 00:11:08;;;;;;;23.40;19.75;;;25.30;99.90;;;;;;4882838;29;20132;-88
2021/08/22 00:13:34;;;;;;;22.73;19.67;;;25.30;99.90;;;;;;4883138;29;20065;-88
2021/08/22 00:16:01;;;;;;;24.73;20.08;;;25.30;99.90;;;;;;4899610;29;20383;-88
2021/08/22 00:18:27;;;;;;;24.77;20.42;;;25.30;99.90;;;;;;4883390;29;20049;-88
2021/08/22 00:20:53;;;;;;;23.40;19.77;;;25.30;99.90;;;;;;4867086;29;20504;-88
2021/08/22 00:23:18;;;;;;;23.17;19.02;;;25.30;99.90;;;;;;4882971;29;20028;-88
2021/08/22 00:25:44;;;;;;;23.38;19.63;;;25.30;99.90;;;;;;4882922;29;20391;-87
2021/08/22 00:28:09;;;;;;;22.15;18.98;;;25.30;99.90;;;;;;4882564;29;20035;-88
2021/08/22 00:30:35;;;;;;;22.65;19.23;;;25.30;99.90;;;;;;4883483;29;20506;-87
2021/08/22 00:33:01;;;;;;;22.02;19.50;;;25.30;99.90;;;;;;4899357;29;20037;-88
2021/08/22 00:35:26;;;;;;;25.55;20.23;;;25.30;99.90;;;;;;4866826;29;20033;-87
2021/08/22 00:37:53;;;;;;;23.75;21.10;;;25.30;99.90;;;;;;4899120;29;20084;-88
2021/08/22 00:40:19;;;;;;;26.73;21.05;;;25.30;99.90;;;;;;4882613;29;20061;-88
2021/08/22 00:42:46;;;;;;;25.35;22.35;;;25.30;99.90;;;;;;4867032;29;20036;-89
2021/08/22 00:45:12;;;;;;;27.10;21.90;;;25.30;99.90;;;;;;4866819;29;20432;-89
2021/08/22 00:47:45;;;;;;;27.73;23.98;;;25.30;99.90;;;;;;4899280;29;20387;-88
2021/08/22 00:50:16;;;;;;;28.75;23.75;;;25.30;99.90;;;;;;4898860;29;20044;-88
2021/08/22 00:52:42;;;;;;;26.75;23.17;;;25.30;99.90;;;;;;4899265;29;20153;-88
2021/08/22 00:55:09;;;;;;;27.05;22.80;;;25.30;99.90;;;;;;4866758;29;20475;-89
2021/08/22 00:57:35;;;;;;;28.40;23.50;;;25.30;99.90;;;;;;4899001;29;20029;-89
2021/08/22 01:00:09;;;;;;;28.13;22.80;;;25.30;99.90;;;;;;4881971;29;20479;-89
2021/08/22 01:02:42;;;;;;;28.77;24.10;;;25.30;99.90;;;;;;4898905;29;20049;-88
2021/08/22 01:05:32;;;;;;;27.73;23.90;;;25.30;99.90;;;;;;4899235;29;20032;-88
2021/08/22 01:08:33;;;;;;;30.65;24.50;;;25.30;99.90;;;;;;4881847;29;20029;-89
2021/08/22 01:11:25;;;;;;;27.85;24.23;;;25.30;99.90;;;;;;4898433;29;20112;-89
2021/08/22 01:14:01;;;;;;;27.50;23.58;;;25.30;99.90;;;;;;4894774;29;20032;-89
2021/08/22 01:16:33;;;;;;;29.20;24.15;;;25.30;99.90;;;;;;4898944;29;20060;-88
2021/08/22 01:19:05;;;;;;;30.50;25.45;;;25.30;99.90;;;;;;4898462;29;20064;-88
2021/08/22 01:21:31;;;;;;;29.10;24.55;;;25.30;99.90;;;;;;4881807;29;20115;-88
2021/08/22 01:24:02;;;;;;;25.92;22.60;;;25.30;99.90;;;;;;4881946;29;20388;-89
2021/08/22 01:26:31;;;;;;;26.50;22.65;;;25.30;99.90;;;;;;4867288;29;20498;-89
2021/08/22 01:28:59;;;;;;;29.30;24.15;;;25.30;99.90;;;;;;4881650;29;20053;-88
2021/08/22 01:31:28;;;;;;;26.50;22.65;;;25.30;99.90;;;;;;4882006;29;20220;-88
2021/08/22 01:34:00;;;;;;;26.73;23.13;;;25.30;99.90;;;;;;4882087;29;20043;-88
2021/08/22 01:36:26;;;;;;;26.35;22.75;;;25.30;99.90;;;;;;4898573;29;20063;-88
2021/08/22 01:38:54;;;;;;;29.05;24.17;;;25.30;99.90;;;;;;4881894;29;20028;-89
2021/08/22 01:41:23;;;;;;;25.38;22.55;;;25.30;99.90;;;;;;4898434;29;20071;-88
2021/08/22 01:43:50;;;;;;;25.10;21.95;;;25.30;99.90;;;;;;4898418;29;20057;-89
2021/08/22 01:46:16;;;;;;;28.77;24.05;;;25.30;99.90;;;;;;4866017;29;20119;-88
2021/08/22 01:48:42;;;;;;;27.90;23.65;;;25.30;99.90;;;;;;4866224;29;20036;-89
2021/08/22 01:51:09;;;;;;;27.65;23.63;;;25.30;99.90;;;;;;4881871;29;20029;-88
2021/08/22 01:53:35;;;;;;;26.20;22.58;;;25.30;99.90;;;;;;4898986;29;20344;-89
2021/08/22 01:56:01;;;;;;;27.13;23.30;;;25.30;99.90;;;;;;4902091;29;20043;-88
2021/08/22 01:58:27;;;;;;;28.80;24.02;;;25.30;99.90;;;;;;4887822;29;20123;-89
2021/08/22 02:00:53;;;;;;;28.60;24.17;;;25.30;99.90;;;;;;4881985;29;20594;-89
2021/08/22 02:03:29;;;;;;;29.48;24.77;;;25.30;99.90;;;;;;4898136;29;20405;-88
2021/08/22 02:05:59;;;;;;;27.45;23.05;;;25.30;99.90;;;;;;4881729;29;20040;-89
2021/08/22 02:08:28;;;;;;;28.33;23.77;;;25.30;99.90;;;;;;4898393;29;20033;-88
2021/08/22 02:11:25;;;;;;;26.88;23.40;;;25.30;99.90;;;;;;4898364;29;20119;-89
2021/08/22 02:13:53;;;;;;;25.90;23.02;;;25.30;99.90;;;;;;4879189;29;20115;-89
2021/08/22 02:16:23;;;;;;;28.80;24.20;;;25.30;99.90;;;;;;4881471;29;20123;-89
2021/08/22 02:18:52;;;;;;;27.10;23.98;;;25.30;99.90;;;;;;4898441;29;20092;-89
2021/08/22 02:21:21;;;;;;;29.20;23.80;;;25.30;99.90;;;;;;4898454;29;20062;-89
2021/08/22 02:23:49;;;;;;;28.95;23.90;;;25.30;99.90;;;;;;4898184;29;20033;-88
2021/08/22 02:26:17;;;;;;;26.48;23.20;;;25.30;99.90;;;;;;4898044;29;20028;-89
2021/08/22 02:28:43;;;;;;;25.45;22.23;;;25.30;99.90;;;;;;4881703;29;20047;-88
2021/08/22 02:31:12;;;;;;;25.73;22.77;;;25.30;99.90;;;;;;4866912;29;20471;-89
2021/08/22 02:33:38;;;;;;;26.63;22.52;;;25.30;99.90;;;;;;4885054;29;20032;-89
2021/08/22 02:36:04;;;;;;;25.90;22.13;;;25.30;99.90;;;;;;4869229;29;20085;-89
2021/08/22 02:38:29;;;;;;;24.88;21.42;;;25.30;99.90;;;;;;4853697;29;20479;-89
2021/08/22 02:40:55;;;;;;;26.08;21.30;;;25.30;99.90;;;;;;4885015;29;20088;-89
2021/08/22 02:43:20;;;;;;;24.05;20.67;;;25.30;99.90;;;;;;4869281;29;20124;-89
2021/08/22 02:45:46;;;;;;;23.60;21.10;;;25.30;99.90;;;;;;4853892;29;20125;-89
2021/08/22 02:48:12;;;;;;;24.15;20.65;;;25.30;99.90;;;;;;4869190;29;20060;-88
2021/08/22 02:50:38;;;;;;;23.98;20.45;;;25.30;99.90;;;;;;4884704;29;20048;-89
2021/08/22 02:53:05;;;;;;;23.48;20.83;;;25.30;99.90;;;;;;4870181;29;20028;-89
2021/08/22 02:55:31;;;;;;;25.63;21.02;;;25.30;99.90;;;;;;4901364;29;20475;-89
2021/08/22 02:57:56;;;;;;;24.48;21.38;;;25.30;99.90;;;;;;4901328;29;20039;-89
2021/08/22 03:00:23;;;;;;;25.42;21.70;;;25.30;99.90;;;;;;4901111;29;20051;-89
2021/08/22 03:02:48;;;;;;;24.50;20.77;;;25.30;99.90;;;;;;4874588;29;20157;-89
2021/08/22 03:05:14;;;;;;;23.65;20.40;;;25.30;99.90;;;;;;4866555;29;20044;-89
2021/08/22 03:07:40;;;;;;;24.05;20.70;;;25.30;99.90;;;;;;4866080;29;20040;-89
2021/08/22 03:10:06;;;;;;;23.02;20.40;;;25.30;99.90;;;;;;4882595;29;20044;-89
2021/08/22 03:12:32;;;;;;;21.92;19.58;;;25.30;99.90;;;;;;4866174;29;20029;-89
2021/08/22 03:14:58;;;;;;;23.67;20.50;;;25.20;99.90;;;;;;4866018;29;20383;-89
2021/08/22 03:17:23;;;;;;;23.92;20.30;;;25.30;99.90;;;;;;4882344;29;20395;-89
2021/08/22 03:19:51;;;;;;;22.52;19.25;;;25.30;99.90;;;;;;4883960;29;20049;-89
2021/08/22 03:22:18;;;;;;;23.17;20.42;;;25.30;99.90;;;;;;4850202;29;20037;-89
2021/08/22 03:24:43;;;;;;;23.27;18.98;;;25.30;99.90;;;;;;4850293;29;20040;-89
2021/08/22 03:27:09;;;;;;;23.38;20.05;;;25.30;99.90;;;;;;4881849;29;20029;-88
2021/08/22 03:29:35;;;;;;;21.70;19.02;;;25.30;99.90;;;;;;4865603;29;20048;-89
2021/08/22 03:32:00;;;;;;;25.40;19.58;;;25.30;99.90;;;;;;4865757;29;20033;-89
2021/08/22 03:34:26;;;;;;;22.88;19.88;;;25.30;99.90;;;;;;4850156;29;20037;-89
2021/08/22 03:36:52;;;;;;;22.20;19.73;;;25.20;99.90;;;;;;4865684;29;20440;-89
2021/08/22 03:39:17;;;;;;;22.42;18.75;;;25.20;99.90;;;;;;4881781;29;20060;-89
2021/08/22 03:41:43;;;;;;;22.30;19.38;;;25.30;99.90;;;;;;4865546;29;20170;-89
2021/08/22 03:44:09;;;;;;;21.65;18.20;;;25.20;99.90;;;;;;4864346;29;20064;-89
2021/08/22 03:46:35;;;;;;;21.60;18.67;;;25.20;99.90;;;;;;4849597;29;20039;-88
2021/08/22 03:49:00;;;;;;;21.15;17.85;;;25.20;99.90;;;;;;4865062;29;20040;-88
2021/08/22 03:51:26;;;;;;;21.13;17.75;;;25.20;99.90;;;;;;4849358;29;20041;-88
2021/08/22 03:53:52;;;;;;;21.80;18.38;;;25.20;99.90;;;;;;4865479;29;20124;-89
2021/08/22 03:56:18;;;;;;;20.83;17.55;;;25.20;99.90;;;;;;4864783;29;20065;-88
2021/08/22 03:58:44;;;;;;;19.70;17.48;;;25.20;99.90;;;;;;4865021;29;20036;-88
2021/08/22 04:01:10;;;;;;;22.42;18.80;;;25.20;99.90;;;;;;4865230;29;20518;-89
2021/08/22 04:03:39;;;;;;;20.00;17.40;;;25.30;99.90;;;;;;4865204;29;20448;-88
2021/08/22 04:06:05;;;;;;;20.50;18.02;;;25.20;99.90;;;;;;4883806;29;20127;-88
2021/08/22 04:08:31;;;;;;;20.60;18.23;;;25.20;99.90;;;;;;4899715;29;20058;-88
2021/08/22 04:10:58;;;;;;;21.17;18.27;;;25.20;99.90;;;;;;4883253;29;20092;-87
2021/08/22 04:13:23;;;;;;;20.13;17.35;;;25.20;99.90;;;;;;4883194;29;20032;-89
2021/08/22 04:15:52;;;;;;;19.27;16.50;;;25.20;99.90;;;;;;4883317;29;20538;-88
2021/08/22 04:18:18;;;;;;;20.33;16.95;;;25.20;99.90;;;;;;4899677;29;20064;-89
2021/08/22 04:20:44;;;;;;;20.15;16.48;;;25.20;99.90;;;;;;4899590;29;20492;-88
2021/08/22 04:23:11;;;;;;;21.45;17.33;;;25.20;99.90;;;;;;4899708;29;20033;-88
2021/08/22 04:25:36;;;;;;;18.83;16.25;;;25.20;99.90;;;;;;4867405;29;20043;-88
2021/08/22 04:28:04;;;;;;;18.60;16.10;;;25.20;99.90;;;;;;4899728;29;20029;-88
2021/08/22 04:30:30;;;;;;;18.63;15.82;;;25.20;99.90;;;;;;4899160;29;20092;-88
2021/08/22 04:32:56;;;;;;;18.20;16.00;;;25.20;99.90;;;;;;4899644;29;20112;-88
2021/08/22 04:35:21;;;;;;;19.00;15.70;;;25.30;99.90;;;;;;4899411;29;20047;-88
2021/08/22 04:37:47;;;;;;;19.23;15.98;;;25.20;99.90;;;;;;4882981;29;20036;-88
2021/08/22 04:40:12;;;;;;;18.83;15.80;;;25.20;99.90;;;;;;4883025;29;20172;-88
2021/08/22 04:42:38;;;;;;;18.35;15.93;;;25.20;99.90;;;;;;4899078;29;20127;-88
2021/08/22 04:45:05;;;;;;;18.50;16.27;;;25.20;99.90;;;;;;4899835;29;20490;-88
2021/08/22 04:47:30;;;;;;;18.75;15.50;;;25.20;99.90;;;;;;4899646;29;20151;-88
2021/08/22 04:49:56;;;;;;;18.23;14.88;;;25.20;99.90;;;;;;4883362;29;20084;-88
2021/08/22 04:52:22;;;;;;;16.13;14.35;;;25.20;99.90;;;;;;4867803;29;20100;-88
2021/08/22 04:54:47;;;;;;;16.27;14.45;;;25.20;99.90;;;;;;4882669;29;20036;-88
2021/08/22 04:57:13;;;;;;;19.50;16.08;;;25.20;99.90;;;;;;4882781;29;20096;-88
2021/08/22 04:59:38;;;;;;;15.60;13.90;;;25.20;99.90;;;;;;4899291;29;20101;-88
2021/08/22 05:02:05;;;;;;;15.50;13.90;;;25.20;99.90;;;;;;4882385;29;20113;-88
2021/08/22 05:04:31;;;;;;;17.80;14.40;;;25.20;99.90;;;;;;4898731;29;20521;-88
2021/08/22 05:06:57;;;;;;;16.92;14.20;;;25.20;99.90;;;;;;4882150;29;20039;-88
2021/08/22 05:09:23;;;;;;;14.85;13.25;;;25.20;99.90;;;;;;4898801;29;20040;-88
2021/08/22 05:11:49;;;;;;;15.98;14.05;;;25.20;99.90;;;;;;4866764;29;20088;-88
2021/08/22 05:14:14;;;;;;;15.98;14.27;;;25.20;99.90;;;;;;4898838;29;20115;-88
2021/08/22 05:16:41;;;;;;;16.25;14.55;;;25.20;99.90;;;;;;4881981;29;20043;-88
2021/08/22 05:19:07;;;;;;;13.93;12.43;;;25.20;99.90;;;;;;4851281;29;20032;-88
2021/08/22 05:21:33;;;;;;;18.02;13.95;;;25.20;99.90;;;;;;4881865;29;20040;-88
2021/08/22 05:23:58;;;;;;;15.32;13.27;;;25.20;99.90;;;;;;4898697;29;20075;-88
2021/08/22 05:26:26;;;;;;;16.65;13.30;;;25.20;99.90;;;;;;4898987;29;20108;-88
2021/08/22 05:28:51;;;;;;;15.77;13.18;;;25.20;99.90;;;;;;4866879;29;20039;-88
2021/08/22 05:31:17;;;;;;;13.40;12.00;;;25.20;99.90;;;;;;4882171;29;20032;-88
2021/08/22 05:33:44;;;;;;;13.25;11.85;;;25.20;99.90;;;;;;4866192;29;20051;-88
2021/08/22 05:36:16;;;;;;;12.88;11.57;;;25.20;99.90;;;;;;4882008;29;20032;-87
2021/08/22 05:38:41;;;;;;;14.88;12.65;;;25.20;99.90;;;;;;4881458;29;20033;-88
2021/08/22 05:41:07;;;;;;;14.80;13.20;;;25.20;99.90;;;;;;4866769;29;20096;-86
2021/08/22 05:43:32;;;;;;;14.35;11.95;;;25.20;99.90;;;;;;4881243;29;20051;-87
2021/08/22 05:45:58;;;;;;;13.38;11.65;;;25.20;99.90;;;;;;4881330;29;20037;-88
2021/08/22 05:48:24;;;;;;;14.55;12.73;;;25.10;99.90;;;;;;4881603;29;20424;-88
2021/08/22 05:50:49;;;;;;;13.65;12.05;;;25.20;99.90;;;;;;4850475;29;20072;-87
2021/08/22 05:53:15;;;;;;;12.65;10.07;;;25.10;99.90;;;;;;4881490;29;20033;-88
2021/08/22 05:55:40;;;;;;;11.95;10.75;;;25.10;99.90;;;;;;4866048;29;20032;-88
2021/08/22 05:58:06;;;;;;;11.27;10.10;;;25.10;99.90;;;;;;4898029;29;20060;-88
2021/08/22 06:00:32;;;;;;;10.82;9.65;;;25.10;99.90;;;;;;4897575;29;20040;-88
2021/08/22 06:02:57;;;;;;;11.30;9.65;;;25.00;99.90;;;;;;4880152;29;20057;-87
2021/08/22 06:05:23;;;;;;;10.05;8.95;;;25.00;99.90;;;;;;4881490;29;20040;-88
2021/08/22 06:07:48;;;;;;;10.02;8.80;;;25.00;99.90;;;;;;4902178;29;20044;-87
2021/08/22 06:10:14;;;;;;;10.00;8.95;;;25.00;99.90;;;;;;4902102;29;20490;-88
2021/08/22 06:12:40;;;;;;;11.15;9.30;;;25.00;99.90;;;;;;4885032;29;20395;-88
2021/08/22 06:15:06;;;;;;;9.55;8.48;;;25.00;99.90;;;;;;4884922;29;20052;-88
2021/08/22 06:17:32;;;;;;;12.38;9.25;;;25.00;99.90;;;;;;4883487;29;20036;-87
2021/08/22 06:19:57;;;;;;;9.32;8.32;;;25.00;99.90;;;;;;4882786;29;20092;-88
2021/08/22 06:22:23;;;;;;;9.50;8.38;;;25.00;99.90;;;;;;4869185;29;20120;-88
2021/08/22 06:24:48;;;;;;;9.05;8.13;;;25.00;99.90;;;;;;4883906;29;20431;-87
2021/08/22 06:27:17;;;;;;;9.32;7.88;;;25.10;99.90;;;;;;4884320;29;20068;-87
2021/08/22 06:29:43;;;;;;;8.65;7.65;;;25.10;99.90;;;;;;4868030;29;20048;-87
2021/08/22 06:32:08;;;;;;;9.07;8.10;;;25.10;99.90;;;;;;4901065;29;20535;-86
2021/08/22 06:34:34;;;;;;;14.70;7.78;;;25.10;99.90;;;;;;4884160;29;20040;-87
2021/08/22 06:36:59;;;;;;;10.20;8.38;;;25.10;99.90;;;;;;4884740;29;20567;-87
2021/08/22 06:39:25;;;;;;;9.32;8.27;;;25.10;99.90;;;;;;4869032;29;20043;-88
2021/08/22 06:41:51;;;;;;;8.93;7.70;;;25.10;99.90;;;;;;4901456;29;20593;-87
2021/08/22 06:44:16;;;;;;;9.05;8.10;;;25.10;99.90;;;;;;4884101;29;20396;-88
2021/08/22 06:46:42;;;;;;;9.30;8.20;;;25.10;99.90;;;;;;4883909;29;20036;-87
2021/08/22 06:49:08;;;;;;;11.20;8.35;;;25.10;99.90;;;;;;4884558;29;20471;-88
2021/08/22 06:51:35;;;;;;;10.43;8.27;;;25.10;99.90;;;;;;4883228;29;20080;-87
2021/08/22 06:54:00;;;;;;;10.68;8.73;;;25.20;99.90;;;;;;4900268;29;20537;-87
2021/08/22 06:56:29;;;;;;;10.35;8.85;;;25.10;99.90;;;;;;4883651;29;20037;-89
2021/08/22 06:58:54;;;;;;;10.90;9.38;;;25.20;99.90;;;;;;4852763;29;20059;-87
2021/08/22 07:01:20;;;;;;;11.32;9.35;;;25.20;99.90;;;;;;4899590;29;20476;-87
2021/08/22 07:03:45;;;;;;;11.07;9.25;;;25.20;99.90;;;;;;4867498;29;20495;-87
2021/08/22 07:06:11;;;;;;;11.38;9.30;;;25.20;99.90;;;;;;4865366;29;20381;-87
2021/08/22 07:08:37;;;;;;;11.13;9.55;;;25.20;99.90;;;;;;4880923;29;20057;-88
2021/08/22 07:11:02;;;;;;;11.48;10.27;;;25.20;99.90;;;;;;4864917;29;20491;-87
2021/08/22 07:13:28;;;;;;;10.60;9.50;;;25.20;99.90;;;;;;4849244;29;20124;-87
2021/08/22 07:15:54;;;;;;;10.93;9.30;;;25.20;99.90;;;;;;4863921;29;20033;-86
2021/08/22 07:18:20;;;;;;;13.02;10.38;;;25.20;99.90;;;;;;4832374;29;20060;-87
2021/08/22 07:20:45;;;;;;;11.55;10.05;;;25.20;99.90;;;;;;4849189;29;20041;-85
2021/08/22 07:23:11;;;;;;;11.75;10.13;;;25.20;99.90;;;;;;4865262;29;20029;-87
2021/08/22 07:25:37;;;;;;;11.70;9.27;;;25.20;99.90;;;;;;4834227;29;20056;-88
2021/08/22 07:28:03;;;;;;;10.52;9.18;;;25.20;99.90;;;;;;4880710;29;20041;-88
2021/08/22 07:30:29;;;;;;;11.48;9.10;;;25.20;99.90;;;;;;4880812;29;20404;-88
2021/08/22 07:32:56;;;;;;;12.57;10.25;;;25.20;99.90;;;;;;4864341;29;20033;-88
2021/08/22 07:35:21;;;;;;;14.10;11.20;;;25.20;99.90;;;;;;4864611;29;20029;-86
2021/08/22 07:37:47;;;;;;;12.93;11.25;;;25.20;99.90;;;;;;4881720;29;20044;-87
2021/08/22 07:40:13;;;;;;;14.57;12.07;;;25.20;99.90;;;;;;4848709;29;20408;-87
2021/08/22 07:42:38;;;;;;;16.35;12.10;;;25.20;99.90;;;;;;4848791;29;20032;-87
2021/08/22 07:45:05;;;;;;;15.80;12.68;;;25.20;99.90;;;;;;4864585;29;20037;-87
2021/08/22 07:47:30;;;;;;;16.23;12.90;;;25.20;99.90;;;;;;4865816;29;20036;-87
2021/08/22 07:49:56;;;;;;;13.05;11.68;;;25.20;99.90;;;;;;4862649;29;20049;-87
2021/08/22 07:52:24;;;;;;;14.60;13.07;;;25.20;99.90;;;;;;4880332;29;20025;-87
2021/08/22 07:54:50;;;;;;;16.23;13.27;;;25.20;99.90;;;;;;4880052;29;20030;-87
2021/08/22 07:57:17;;;;;;;17.70;14.05;;;25.20;99.90;;;;;;4881137;29;20047;-87
2021/08/22 07:59:43;;;;;;;17.85;14.80;;;25.20;99.90;;;;;;4879088;29;20426;-87
2021/08/22 08:02:08;;;;;;;15.18;13.57;;;25.20;99.90;;;;;;4867316;29;20140;-87
2021/08/22 08:04:34;;;;;;;18.08;14.55;;;25.20;99.90;;;;;;4882760;29;20128;-87
2021/08/22 08:07:00;;;;;;;20.13;17.05;;;25.20;99.90;;;;;;4897857;29;20052;-87
2021/08/22 08:09:25;;;;;;;19.83;16.73;;;25.20;99.90;;;;;;4898202;29;20064;-86
2021/08/22 08:11:51;;;;;;;19.30;16.83;;;25.20;99.90;;;;;;4898451;29;20076;-87
2021/08/22 08:14:17;;;;;;;20.30;16.75;;;25.20;99.90;;;;;;4898054;29;20097;-87
2021/08/22 08:16:42;;;;;;;20.00;17.00;;;25.20;99.90;;;;;;4898646;29;20284;-89
2021/08/22 08:19:08;;;;;;;19.85;16.63;;;25.10;99.90;;;;;;4898043;29;20029;-87
2021/08/22 08:21:33;;;;;;;20.35;15.90;;;25.10;99.90;;;;;;4899415;29;20092;-88
2021/08/22 08:23:59;;;;;;;20.13;16.60;;;25.20;99.90;;;;;;4899338;29;20079;-87
2021/08/22 08:26:25;;;;;;;18.38;15.20;;;25.10;99.90;;;;;;4898000;29;20044;-88
2021/08/22 08:28:51;;;;;;;17.48;14.65;;;25.10;99.90;;;;;;4897565;29;20492;-87
2021/08/22 08:31:17;;;;;;;17.88;14.93;;;25.10;99.90;;;;;;4898138;29;20099;-87
2021/08/22 08:33:42;;;;;;;19.25;15.18;;;25.10;99.90;;;;;;4898794;29;20033;-87
2021/08/22 08:36:08;;;;;;;18.52;14.63;;;25.10;99.90;;;;;;4881974;29;20039;-86
2021/08/22 08:38:34;;;;;;;17.88;14.50;;;25.10;99.90;;;;;;4898295;29;20032;-86
2021/08/22 08:41:01;;;;;;;16.98;13.60;;;25.10;99.90;;;;;;4897414;29;20032;-86
2021/08/22 08:43:29;;;;;;;18.88;13.18;;;25.10;99.90;;;;;;4882764;29;20040;-86
2021/08/22 08:45:59;;;;;;;17.92;14.07;;;25.10;99.90;;;;;;4898385;29;20032;-88
2021/08/22 08:48:44;;;;;;;18.70;13.57;;;25.10;99.90;;;;;;4898490;29;20111;-88
2021/08/22 08:51:28;;;;;;;18.20;14.77;;;25.10;99.90;;;;;;4897436;29;20037;-88
2021/08/22 08:53:57;;;;;;;18.47;15.00;;;25.00;99.90;;;;;;4898546;29;20103;-88
2021/08/22 08:56:50;;;;;;;21.08;15.90;;;25.00;99.90;;;;;;4881772;29;20487;-88
2021/08/22 08:59:16;;;;;;;21.08;16.13;;;25.00;99.90;;;;;;4898239;29;20041;-88
2021/08/22 09:01:42;;;;;;;20.10;15.90;;;25.10;99.90;;;;;;4896970;29;20119;-88
2021/08/22 09:04:20;;;;;;;17.48;15.10;;;25.00;99.90;;;;;;4881093;29;20060;-88
2021/08/22 09:07:24;;;;;;;19.27;15.10;;;25.00;99.90;;;;;;4882993;29;20033;-88
2021/08/22 09:10:01;;;;;;;19.48;16.02;;;25.00;99.90;;;;;;4898991;29;20491;-88
2021/08/22 09:12:54;;;;;;;19.67;15.00;;;25.00;99.90;;;;;;4897421;29;20028;-88
2021/08/22 09:15:29;;;;;;;17.50;14.30;;;25.00;99.90;;;;;;4897139;29;20029;-88
2021/08/22 09:18:17;;;;;;;18.38;13.50;;;25.00;99.90;;;;;;4898379;29;20033;-88
2021/08/22 09:21:10;;;;;;;18.05;14.85;;;25.00;99.90;;;;;;4897885;29;20055;-88
2021/08/22 09:24:09;;;;;;;16.60;13.15;;;25.00;99.90;;;;;;4896309;29;20479;-88
2021/08/22 09:27:13;;;;;;;15.38;12.93;;;25.00;99.90;;;;;;4896886;29;20036;-88
2021/08/22 09:30:17;;;;;;;16.33;12.93;;;25.00;99.90;;;;;;4882421;29;20044;-88
2021/08/22 09:33:36;;;;;;;14.98;11.80;;;25.00;99.90;;;;;;4896367;29;20037;-88
2021/08/22 09:36:21;;;;;;;15.13;11.50;;;25.00;99.90;;;;;;4897784;29;20040;-89
2021/08/22 09:39:24;;;;;;;12.27;10.52;;;25.00;99.90;;;;;;4897615;29;20035;-89
2021/08/22 09:42:05;;;;;;;13.95;10.63;;;25.00;99.90;;;;;;4896101;29;20088;-88
2021/08/22 09:44:43;;;;;;;11.55;10.35;;;25.00;99.90;;;;;;4898252;29;20401;-89
2021/08/22 09:47:28;;;;;;;15.15;8.90;;;25.00;99.90;;;;;;4896666;29;20088;-88
2021/08/22 09:50:12;;;;;;;;;;;25.00;99.90;;;;;;4898800;29;20036;-88
2021/08/22 09:53:15;;;;;;;10.27;8.47;;;25.00;99.90;;;;;;4902752;29;19915;-87
2021/08/22 09:56:25;;;;;;;11.50;8.93;;;25.00;99.90;;;;;;4899159;29;20056;-89
2021/08/22 09:58:54;;;;;;;11.40;8.07;;;24.90;99.90;;;;;;4831281;29;20042;-88
2021/08/22 10:01:25;;;;;;;10.13;7.53;;;25.00;99.90;;;;;;4895754;29;20033;-88
2021/08/22 10:04:28;;;;;;;10.25;7.50;;;25.00;99.90;;;;;;4896795;29;20048;-88
2021/08/22 10:07:20;;;;;;;7.88;7.07;;;25.00;99.90;;;;;;4896618;29;20032;-87
2021/08/22 10:10:15;;;;;;;8.85;6.82;;;25.00;99.90;;;;;;4875306;29;20049;-88
2021/08/22 10:12:42;;;;;;;8.32;6.70;;;25.00;99.90;;;;;;4896875;29;20031;-87
2021/08/22 10:15:09;;;;;;;8.45;6.40;;;25.00;99.90;;;;;;4896342;29;20052;-88
2021/08/22 10:17:35;;;;;;;7.78;6.43;;;25.00;99.90;;;;;;4897063;29;20043;-89
2021/08/22 10:20:00;;;;;;;6.97;5.97;;;25.00;99.90;;;;;;4897738;29;20036;-89
2021/08/22 10:22:33;;;;;;;6.32;5.53;;;25.00;99.90;;;;;;4881730;29;20550;-89
2021/08/22 10:25:06;;;;;;;6.22;5.20;;;25.00;99.90;;;;;;4896796;29;20089;-88
2021/08/22 10:27:36;;;;;;;7.38;6.45;;;25.00;99.90;;;;;;4896613;29;20028;-88
2021/08/22 10:30:02;;;;;;;6.88;5.80;;;25.00;99.90;;;;;;4898136;29;20037;-88
2021/08/22 10:32:57;;;;;;;6.53;5.88;;;25.00;99.90;;;;;;4896986;29;20032;-89
2021/08/22 10:35:23;;;;;;;7.00;6.00;;;25.00;99.90;;;;;;4896705;29;20032;-89
2021/08/22 10:37:49;;;;;;;5.63;5.03;;;25.10;99.90;;;;;;4881545;29;20063;-89
2021/08/22 10:40:34;;;;;;;6.85;5.47;;;25.10;99.90;;;;;;4896826;29;20036;-89
2021/08/22 10:43:05;;;;;;;6.15;5.00;;;25.10;99.90;;;;;;4898233;29;20116;-88
2021/08/22 10:45:40;;;;;;;6.78;4.88;;;25.10;99.90;;;;;;4896685;29;20035;-89
2021/08/22 10:48:30;;;;;;;5.97;4.82;;;25.10;99.90;;;;;;4895016;29;20101;-88
2021/08/22 10:51:02;;;;;;;5.15;4.47;;;25.10;99.90;;;;;;4887430;29;20100;-87
2021/08/22 10:53:30;;;;;;;4.35;3.95;;;25.20;99.90;;;;;;4899481;29;20039;-88
2021/08/22 10:55:57;;;;;;;4.90;4.15;;;25.20;99.90;;;;;;4901152;29;20112;-88
2021/08/22 10:59:01;;;;;;;4.68;3.65;;;25.20;99.90;;;;;;4899671;29;20111;-89
2021/08/22 11:01:38;;;;;;;4.05;3.65;;;25.20;99.90;;;;;;4899560;29;20029;-89
2021/08/22 11:04:08;;;;;;;4.85;3.55;;;25.20;99.90;;;;;;4918939;29;20143;-88
2021/08/22 11:06:35;;;;;;;3.85;3.40;;;25.20;99.90;;;;;;4920527;29;20486;-89
2021/08/22 11:09:01;;;;;;;4.25;3.53;;;25.20;99.90;;;;;;4902790;29;20497;-89
2021/08/22 11:11:27;;;;;;;4.60;3.30;;;25.20;99.90;;;;;;4902479;29;20058;-89
2021/08/22 11:13:55;;;;;;;4.38;3.10;;;25.20;99.90;;;;;;4903028;29;20032;-89
2021/08/22 11:16:36;;;;;;;5.07;3.58;;;25.20;99.90;;;;;;4919840;29;20028;-89
2021/08/22 11:19:04;;;;;;;2.95;2.65;;;25.20;99.90;;;;;;4903130;29;20083;-89
2021/08/22 11:21:30;;;;;;;3.80;2.90;;;25.20;99.90;;;;;;4887105;29;20036;-89
2021/08/22 11:24:00;;;;;;;3.55;2.80;;;25.30;99.90;;;;;;4902928;29;20032;-89
2021/08/22 11:26:26;;;;;;;3.42;3.00;;;25.30;99.90;;;;;;4902865;29;20059;-90
2021/08/22 11:29:00;;;;;;;3.58;2.97;;;25.30;99.90;;;;;;4903083;29;20483;-89
2021/08/22 11:31:30;;;;;;;4.18;3.10;;;25.30;99.90;;;;;;4888425;29;20050;-89
2021/08/22 11:33:57;;;;;;;3.22;2.78;;;25.30;99.90;;;;;;4891856;29;20479;-89
2021/08/22 11:36:27;;;;;;;3.78;2.80;;;25.30;99.90;;;;;;4902331;29;20039;-89
2021/08/22 11:39:14;;;;;;;2.65;2.42;;;25.30;99.90;;;;;;4902899;29;20067;-89
2021/08/22 11:41:45;;;;;;;4.03;3.05;;;25.30;99.90;;;;;;4902242;29;20118;-89
2021/08/22 11:44:10;;;;;;;3.85;3.03;;;25.30;99.90;;;;;;4902850;29;20043;-88
2021/08/22 11:46:37;;;;;;;3.08;2.65;;;25.30;99.90;;;;;;4902450;29;20032;-89
2021/08/22 11:49:03;;;;;;;2.47;2.28;;;25.30;99.90;;;;;;4871030;29;20036;-88
2021/08/22 11:51:29;;;;;;;2.85;2.58;;;25.30;99.90;;;;;;4902379;29;20525;-89
2021/08/22 11:53:55;;;;;;;2.20;2.00;;;25.30;99.90;;;;;;4919190;29;20059;-89
2021/08/22 11:56:23;;;;;;;3.55;2.80;;;25.30;99.90;;;;;;4902369;29;20039;-89
2021/08/22 11:58:49;;;;;;;3.83;2.72;;;25.30;99.90;;;;;;4871399;29;20040;-89
2021/08/22 12:01:18;;;;;;;2.97;2.58;;;25.30;99.90;;;;;;4886426;29;20036;-88
2021/08/22 12:03:58;;;;;;;2.70;2.50;;;25.30;99.90;;;;;;4901753;29;20056;-89
2021/08/22 12:06:24;;;;;;;3.28;2.65;;;25.30;99.90;;;;;;4901862;29;20036;-89
2021/08/22 12:08:50;;;;;;;2.85;2.47;;;25.30;99.90;;;;;;4886997;29;20043;-89
2021/08/22 12:11:17;;;;;;;3.38;2.70;;;25.30;99.90;;;;;;4918362;29;20040;-89
2021/08/22 12:13:45;;;;;;;2.50;2.30;;;25.30;99.90;;;;;;4901775;29;20040;-89
2021/08/22 12:16:32;;;;;;;2.72;2.28;;;25.30;99.90;;;;;;4886095;29;20028;-89
2021/08/22 12:19:16;;;;;;;2.88;2.50;;;25.30;99.90;;;;;;4902061;29;20036;-89
2021/08/22 12:21:41;;;;;;;3.70;2.80;;;25.30;99.90;;;;;;4918559;29;20087;-89
2021/08/22 12:24:19;;;;;;;2.15;1.90;;;25.30;99.90;;;;;;4901543;29;20123;-89
2021/08/22 12:26:56;;;;;;;2.28;2.08;;;25.30;99.90;;;;;;4918961;29;20035;-90
2021/08/22 12:30:03;;;;;;;2.85;2.53;;;25.30;99.90;;;;;;4902154;29;20088;-90
2021/08/22 12:32:35;;;;;;;2.20;1.85;;;25.30;99.90;;;;;;4890318;29;20486;-90
2021/08/22 12:35:06;;;;;;;3.35;2.17;;;25.30;99.90;;;;;;4902313;29;20090;-90
2021/08/22 12:37:32;;;;;;;2.72;2.00;;;25.30;99.90;;;;;;4902499;29;20036;-91
2021/08/22 12:40:00;;;;;;;1.90;1.67;;;25.30;99.90;;;;;;4901959;29;20491;-91
2021/08/22 12:42:26;;;;;;;2.10;1.85;;;25.30;99.90;;;;;;4901458;29;20119;-90
2021/08/22 12:44:53;;;;;;;2.45;1.77;;;25.30;99.90;;;;;;4900870;29;20065;-90
2021/08/22 12:47:19;;;;;;;2.22;1.90;;;25.30;99.90;;;;;;4918124;29;20111;-90